createdAt,value
2018-08-31T00:02:31.236Z,54.97
2018-08-31T00:05:56.021Z,53.83
2018-08-31T00:10:59.472Z,52.40
2018-08-31T00:13:40.400Z,52.20
2018-08-31T00:16:20.941Z,57.00
2018-08-31T00:19:01.357Z,51.97
2018-08-31T00:21:43.663Z,51.13
2018-08-31T00:24:41.429Z,44.17
2018-08-31T00:27:38.697Z,46.33
2018-08-31T00:30:36.152Z,43.50
2018-08-31T00:33:53.221Z,43.50
2018-08-31T00:36:49.543Z,43.97
2018-08-31T00:39:56.687Z,42.10
2018-08-31T00:44:56.050Z,41.70
2018-08-31T00:47:36.737Z,45.40
2018-08-31T00:50:17.388Z,43.33
2018-08-31T00:52:58.490Z,46.43
2018-08-31T00:55:39.010Z,43.07
2018-08-31T00:58:19.596Z,46.60
2018-08-31T01:01:00.144Z,43.67
2018-08-31T01:03:43.784Z,48.97
2018-08-31T01:06:24.400Z,51.57
2018-08-31T01:09:05.976Z,46.77
2018-08-31T01:11:46.788Z,45.83
2018-08-31T01:14:27.138Z,50.50
2018-08-31T01:17:07.581Z,45.33
2018-08-31T01:19:48.160Z,46.70
2018-08-31T01:22:28.688Z,47.40
2018-08-31T01:25:10.519Z,54.57
2018-08-31T01:27:50.971Z,58.07
2018-08-31T01:30:31.476Z,55.63
2018-08-31T01:33:13.961Z,56.13
2018-08-31T01:35:54.468Z,56.50
2018-08-31T01:38:35.061Z,63.13
2018-08-31T01:41:16.664Z,59.53
2018-08-31T01:43:57.260Z,54.67
2018-08-31T01:46:37.877Z,57.57
2018-08-31T01:49:18.476Z,65.83
2018-08-31T01:51:59.042Z,59.03
2018-08-31T01:54:40.808Z,56.30
2018-08-31T01:57:21.356Z,51.67
2018-08-31T02:00:01.971Z,47.53
2018-08-31T02:02:45.363Z,47.87
2018-08-31T02:05:25.856Z,50.20
2018-08-31T02:08:06.865Z,47.87
2018-08-31T02:10:47.335Z,43.43
2018-08-31T02:13:27.938Z,43.57
2018-08-31T02:16:08.404Z,40.20
2018-08-31T02:44:52.092Z,28.33
2018-08-31T02:47:34.118Z,29.20
2018-08-31T02:50:14.748Z,33.43
2018-08-31T02:52:55.248Z,31.47
2018-08-31T02:55:35.676Z,29.27
2018-08-31T02:58:16.143Z,30.63
2018-08-31T03:00:56.529Z,30.30
2018-08-31T03:03:37.280Z,28.90
2018-08-31T03:06:17.854Z,31.93
2018-08-31T03:09:01.734Z,28.90
2018-08-31T03:11:42.504Z,23.57
2018-08-31T03:14:22.892Z,19.03
2018-08-31T03:17:04.677Z,15.93
2018-08-31T03:19:45.236Z,17.83
2018-08-31T03:22:25.833Z,20.00
2018-08-31T03:25:06.671Z,17.33
2018-08-31T03:27:47.144Z,16.37
2018-08-31T03:30:28.540Z,18.33
2018-08-31T03:33:09.059Z,17.10
2018-08-31T03:35:49.681Z,17.90
2018-08-31T03:38:32.815Z,18.47
2018-08-31T03:41:13.360Z,19.27
2018-08-31T03:43:53.936Z,16.60
2018-08-31T03:46:34.476Z,15.23
2018-08-31T03:49:15.056Z,17.27
2018-08-31T03:51:55.593Z,17.77
2018-08-31T03:54:36.191Z,15.80
2018-08-31T03:57:16.596Z,17.53
2018-08-31T03:59:58.890Z,20.00
2018-08-31T04:02:39.332Z,16.27
2018-08-31T04:05:19.728Z,15.43
2018-08-31T04:08:03.396Z,17.63
2018-08-31T04:10:43.920Z,17.37
2018-08-31T04:13:24.411Z,16.57
2018-08-31T04:16:04.963Z,16.20
2018-08-31T04:18:45.385Z,17.10
2018-08-31T04:21:25.984Z,17.13
2018-08-31T04:24:06.528Z,18.17
2018-08-31T04:26:47.712Z,17.70
2018-08-31T04:29:31.772Z,19.80
2018-08-31T04:32:12.729Z,17.87
2018-08-31T04:34:53.235Z,19.27
2018-08-31T04:37:34.710Z,18.93
2018-08-31T04:40:15.260Z,20.50
2018-08-31T04:42:55.850Z,18.43
2018-08-31T04:45:36.304Z,22.67
2018-08-31T04:48:16.708Z,17.70
2018-08-31T04:50:58.915Z,17.37
2018-08-31T04:53:39.473Z,19.57
2018-08-31T04:56:19.841Z,21.40
2018-08-31T04:59:04.984Z,21.63
2018-08-31T05:01:45.528Z,18.90
2018-08-31T05:04:26.148Z,16.83
2018-08-31T05:07:06.744Z,17.93
2018-08-31T05:09:47.277Z,19.67
2018-08-31T05:12:29.844Z,18.63
2018-08-31T05:15:10.400Z,17.10
2018-08-31T05:17:50.902Z,17.97
2018-08-31T05:20:33.562Z,21.03
2018-08-31T05:23:14.248Z,20.37
2018-08-31T05:25:54.933Z,21.43
2018-08-31T05:28:35.417Z,22.17
2018-08-31T05:31:15.987Z,22.30
2018-08-31T05:33:56.654Z,23.23
2018-08-31T05:36:37.090Z,23.57
2018-08-31T05:39:17.641Z,23.63
2018-08-31T05:42:01.824Z,24.80
2018-08-31T05:44:42.253Z,26.17
2018-08-31T05:47:23.132Z,24.53
2018-08-31T05:50:05.223Z,23.40
2018-08-31T05:52:45.744Z,26.33
2018-08-31T05:55:26.324Z,24.63
2018-08-31T05:58:06.815Z,22.87
2018-08-31T06:00:47.355Z,23.83
2018-08-31T06:03:29.039Z,24.03
2018-08-31T06:06:09.449Z,22.57
2018-08-31T06:08:50.061Z,24.50
2018-08-31T06:11:33.568Z,24.73
2018-08-31T06:14:14.124Z,22.00
2018-08-31T06:16:54.819Z,26.40
2018-08-31T06:19:35.261Z,24.33
2018-08-31T06:22:16.572Z,20.60
2018-08-31T06:24:57.159Z,21.40
2018-08-31T06:27:37.579Z,20.97
2018-08-31T06:30:18.775Z,20.37
2018-08-31T06:33:01.924Z,15.47
2018-08-31T06:35:42.647Z,19.20
2018-08-31T06:38:23.095Z,18.00
2018-08-31T06:41:04.643Z,18.53
2018-08-31T06:43:45.180Z,17.23
2018-08-31T06:46:25.743Z,17.37
2018-08-31T06:49:06.308Z,19.80
2018-08-31T06:51:46.838Z,18.93
2018-08-31T06:54:28.714Z,23.17
2018-08-31T06:57:23.212Z,20.20
2018-08-31T07:00:05.333Z,19.10
2018-08-31T07:02:46.065Z,23.53
2018-08-31T07:05:27.123Z,20.80
2018-08-31T07:08:07.720Z,19.13
2018-08-31T07:10:48.305Z,19.13
2018-08-31T07:13:31.931Z,19.20
2018-08-31T07:16:12.415Z,21.60
2018-08-31T07:18:53.011Z,19.13
2018-08-31T07:21:34.875Z,19.73
2018-08-31T07:24:15.499Z,20.30
2018-08-31T07:26:56.220Z,26.37
2018-08-31T07:29:36.751Z,21.33
2018-08-31T07:32:17.384Z,154.20
2018-08-31T07:35:02.147Z,50.13
2018-08-31T07:37:42.588Z,49.00
2018-08-31T07:40:24.332Z,31.43
2018-08-31T07:43:04.955Z,48.83
2018-08-31T07:45:45.622Z,70.77
2018-08-31T07:48:26.227Z,87.70
2018-08-31T07:51:06.860Z,47.00
2018-08-31T07:53:47.615Z,22.13
2018-08-31T07:56:28.748Z,16.93
2018-08-31T07:59:09.456Z,15.30
2018-08-31T08:01:50.863Z,14.57
2018-08-31T08:04:33.420Z,14.70
2018-08-31T08:07:14.209Z,16.77
2018-08-31T08:09:54.759Z,17.93
2018-08-31T08:12:35.317Z,26.20
2018-08-31T08:15:15.887Z,17.23
2018-08-31T08:17:56.287Z,11.60
2018-08-31T08:20:36.930Z,9.73
2018-08-31T08:23:17.543Z,9.93
2018-08-31T08:25:59.032Z,11.27
2018-08-31T08:28:39.631Z,13.47
2018-08-31T08:31:21.180Z,15.87
2018-08-31T08:34:03.552Z,16.53
2018-08-31T08:36:44.367Z,17.57
2018-08-31T08:39:24.909Z,14.90
2018-08-31T08:42:05.506Z,16.33
2018-08-31T08:44:45.933Z,17.20
2018-08-31T08:47:26.532Z,19.80
2018-08-31T08:50:07.220Z,17.50
2018-08-31T08:52:47.797Z,18.43
2018-08-31T08:55:30.264Z,16.73
2018-08-31T08:58:10.859Z,17.57
2018-08-31T09:00:52.011Z,16.37
2018-08-31T09:03:34.157Z,38.77
2018-08-31T09:06:15.392Z,19.43
2018-08-31T09:08:55.894Z,15.40
2018-08-31T09:11:37.860Z,21.00
2018-08-31T09:14:18.484Z,19.07
2018-08-31T09:17:01.981Z,18.20
2018-08-31T09:19:43.146Z,19.23
2018-08-31T09:22:23.731Z,16.33
2018-08-31T09:25:04.935Z,16.47
2018-08-31T09:27:45.388Z,16.60
2018-08-31T09:30:32.077Z,15.60
2018-08-31T09:33:12.574Z,17.67
2018-08-31T09:35:53.206Z,18.03
2018-08-31T09:38:34.628Z,17.97
2018-08-31T09:41:15.369Z,17.90
2018-08-31T09:43:55.918Z,19.63
2018-08-31T09:46:36.503Z,17.87
2018-08-31T09:49:17.110Z,20.40
2018-08-31T09:51:58.761Z,19.97
2018-08-31T09:54:39.407Z,18.30
2018-08-31T09:57:20.159Z,19.13
2018-08-31T10:00:04.892Z,19.57
2018-08-31T10:02:50.615Z,18.83
2018-08-31T10:05:33.535Z,17.43
2018-08-31T10:08:14.088Z,16.73
2018-08-31T10:10:54.807Z,17.83
2018-08-31T10:13:35.329Z,17.10
2018-08-31T10:16:15.775Z,17.03
2018-08-31T10:18:56.398Z,18.10
2018-08-31T10:21:38.482Z,19.17
2018-08-31T10:24:19.034Z,18.97
2018-08-31T10:27:03.071Z,18.63
2018-08-31T10:29:43.647Z,23.03
2018-08-31T10:32:24.129Z,17.17
2018-08-31T10:35:04.732Z,18.70
2018-08-31T10:37:45.271Z,16.53
2018-08-31T10:40:26.395Z,16.60
2018-08-31T10:43:06.821Z,16.63
2018-08-31T10:45:47.426Z,17.33
2018-08-31T10:48:29.105Z,15.80
2018-08-31T10:51:09.865Z,15.47
2018-08-31T10:53:50.584Z,17.47
2018-08-31T10:56:33.800Z,16.20
2018-08-31T10:59:15.376Z,16.47
2018-08-31T11:01:55.956Z,17.87
2018-08-31T11:04:36.567Z,23.43
2018-08-31T11:07:17.178Z,19.70
2018-08-31T11:09:59.312Z,26.40
2018-08-31T11:12:39.908Z,27.63
2018-08-31T11:15:22.124Z,21.57
2018-08-31T11:18:06.112Z,22.20
2018-08-31T11:20:46.768Z,22.30
2018-08-31T11:23:29.345Z,21.63
2018-08-31T11:26:09.921Z,19.70
2018-08-31T11:28:50.496Z,20.50
2018-08-31T11:31:33.552Z,22.50
2018-08-31T11:34:14.080Z,21.63
2018-08-31T11:36:54.567Z,23.17
2018-08-31T11:39:35.154Z,24.27
2018-08-31T11:42:15.717Z,23.33
2018-08-31T11:44:56.477Z,23.30
2018-08-31T11:47:37.157Z,21.60
2018-08-31T11:50:17.614Z,19.53
2018-08-31T11:53:00.172Z,21.40
2018-08-31T11:55:40.820Z,20.83
2018-08-31T11:58:21.461Z,21.47
2018-08-31T12:01:03.617Z,18.60
2018-08-31T12:03:44.442Z,22.50
2018-08-31T12:06:25.365Z,21.10
2018-08-31T12:09:08.470Z,20.37
2018-08-31T12:11:48.981Z,23.23
2018-08-31T12:14:33.128Z,21.97
2018-08-31T12:17:13.799Z,24.40
2018-08-31T12:19:54.335Z,20.90
2018-08-31T12:22:34.939Z,21.13
2018-08-31T12:25:15.560Z,20.33
2018-08-31T12:27:56.153Z,21.93
2018-08-31T12:30:36.745Z,20.13
2018-08-31T12:33:17.428Z,20.73
2018-08-31T12:35:59.378Z,17.57
2018-08-31T12:38:39.921Z,20.10
2018-08-31T12:41:20.380Z,20.07
2018-08-31T12:44:03.607Z,23.03
2018-08-31T12:46:44.170Z,26.57
2018-08-31T12:49:24.697Z,21.40
2018-08-31T12:52:05.387Z,23.20
2018-08-31T12:54:46.040Z,20.33
2018-08-31T12:57:26.600Z,19.57
2018-08-31T13:00:08.428Z,19.20
2018-08-31T13:02:49.894Z,18.87
2018-08-31T13:05:32.797Z,36.93
2018-08-31T13:08:13.867Z,23.67
2018-08-31T13:10:54.496Z,27.60
2018-08-31T13:13:35.081Z,17.50
2018-08-31T13:16:15.652Z,24.57
2018-08-31T13:18:56.419Z,21.10
2018-08-31T13:21:37.094Z,17.03
2018-08-31T13:24:17.700Z,29.33
2018-08-31T13:27:00.061Z,19.60
2018-08-31T13:29:40.654Z,18.37
2018-08-31T13:32:21.702Z,23.60
2018-08-31T13:35:05.703Z,18.30
2018-08-31T13:37:49.478Z,19.77
2018-08-31T13:40:32.093Z,21.90
2018-08-31T13:43:12.774Z,25.80
2018-08-31T13:45:54.214Z,19.40
2018-08-31T13:48:36.144Z,21.83
2018-08-31T13:51:16.892Z,17.77
2018-08-31T13:53:57.406Z,26.57
2018-08-31T13:56:38.128Z,17.17
2018-08-31T13:59:18.774Z,16.33
2018-08-31T14:02:00.511Z,18.20
2018-08-31T14:04:41.108Z,17.07
2018-08-31T14:07:21.813Z,17.97
2018-08-31T14:10:03.597Z,16.20
2018-08-31T14:12:44.313Z,17.93
2018-08-31T14:15:24.859Z,19.13
2018-08-31T14:18:05.859Z,18.27
2018-08-31T14:20:46.981Z,19.90
2018-08-31T14:23:27.492Z,18.63
2018-08-31T14:26:08.211Z,18.07
2018-08-31T14:28:48.884Z,16.97
2018-08-31T14:31:30.484Z,15.70
2018-08-31T14:34:11.264Z,17.83
2018-08-31T14:36:52.356Z,16.60
2018-08-31T14:39:34.224Z,15.87
2018-08-31T14:42:14.918Z,16.80
2018-08-31T14:44:55.968Z,16.23
2018-08-31T14:47:36.664Z,15.87
2018-08-31T14:50:17.412Z,15.37
2018-08-31T14:52:57.877Z,17.13
2018-08-31T14:55:38.399Z,18.70
2018-08-31T14:58:18.977Z,17.73
2018-08-31T15:01:00.684Z,17.93
2018-08-31T15:03:41.349Z,15.40
2018-08-31T15:06:21.916Z,16.53
2018-08-31T15:09:04.024Z,17.03
2018-08-31T15:11:44.629Z,16.20
2018-08-31T15:14:25.220Z,15.90
2018-08-31T15:17:06.083Z,16.23
2018-08-31T15:19:46.635Z,16.87
2018-08-31T15:22:27.328Z,16.27
2018-08-31T15:25:09.121Z,18.07
2018-08-31T15:27:50.068Z,18.43
2018-08-31T15:30:33.844Z,20.37
2018-08-31T15:33:14.394Z,16.87
2018-08-31T15:35:55.549Z,17.00
2018-08-31T15:38:36.209Z,17.67
2018-08-31T15:41:16.735Z,18.63
2018-08-31T15:43:57.509Z,17.83
2018-08-31T15:46:38.003Z,19.03
2018-08-31T15:49:18.473Z,19.23
2018-08-31T15:52:00.303Z,16.30
2018-08-31T15:54:40.888Z,17.97
2018-08-31T15:57:21.606Z,19.23
2018-08-31T16:00:03.837Z,15.40
2018-08-31T16:02:44.321Z,21.17
2018-08-31T16:05:25.034Z,17.87
2018-08-31T16:08:05.635Z,17.87
2018-08-31T16:10:46.827Z,17.30
2018-08-31T16:13:33.739Z,19.43
2018-08-31T16:16:14.363Z,18.53
2018-08-31T16:18:55.024Z,16.40
2018-08-31T16:21:35.631Z,15.67
2018-08-31T16:24:16.048Z,19.17
2018-08-31T16:26:56.834Z,15.93
2018-08-31T16:29:37.367Z,16.27
2018-08-31T16:32:18.210Z,17.03
2018-08-31T16:35:00.287Z,18.43
2018-08-31T16:37:40.960Z,19.43
2018-08-31T16:40:21.936Z,17.23
2018-08-31T16:43:05.436Z,15.77
2018-08-31T16:45:46.160Z,15.47
2018-08-31T16:48:26.768Z,15.30
2018-08-31T16:51:07.843Z,17.23
2018-08-31T16:53:48.604Z,18.53
2018-08-31T16:56:28.998Z,16.33
2018-08-31T16:59:09.599Z,18.03
2018-08-31T17:01:50.194Z,16.97
2018-08-31T17:04:33.729Z,18.20
2018-08-31T17:07:14.440Z,14.73
2018-08-31T17:09:56.013Z,15.97
2018-08-31T17:12:36.653Z,18.80
2018-08-31T17:15:17.679Z,15.67
2018-08-31T17:17:59.125Z,14.60
2018-08-31T17:20:40.537Z,18.53
2018-08-31T17:23:23.210Z,15.37
2018-08-31T17:26:05.316Z,15.30
2018-08-31T17:29:55.032Z,15.17
2018-08-31T17:32:42.092Z,14.77
2018-08-31T17:35:27.974Z,14.57
2018-08-31T17:38:09.065Z,14.63
2018-08-31T17:40:50.598Z,16.00
2018-08-31T17:43:33.789Z,16.57
2018-08-31T17:46:14.865Z,15.70
2018-08-31T17:48:55.922Z,19.33
2018-08-31T17:51:36.832Z,20.27
2018-08-31T17:54:17.436Z,19.53
2018-08-31T17:56:58.049Z,20.33
2018-08-31T17:59:38.757Z,20.63
2018-08-31T18:02:19.336Z,21.63
2018-08-31T18:05:00.976Z,23.03
2018-08-31T18:07:45.320Z,18.90
2018-08-31T18:10:25.945Z,18.83
2018-08-31T18:13:06.959Z,22.30
2018-08-31T18:15:47.758Z,19.50
2018-08-31T18:18:29.583Z,21.07
2018-08-31T18:21:10.888Z,21.90
2018-08-31T18:23:56.100Z,20.03
2018-08-31T18:26:37.568Z,32.83
2018-08-31T18:29:18.193Z,20.93
2018-08-31T18:31:58.801Z,19.13
2018-08-31T18:34:39.243Z,20.60
2018-08-31T18:37:19.955Z,19.30
2018-08-31T18:40:10.873Z,19.97
2018-08-31T18:42:52.400Z,18.80
2018-08-31T18:45:35.210Z,21.87
2018-08-31T18:48:16.688Z,19.70
2018-08-31T18:50:57.277Z,20.90
2018-08-31T18:53:37.829Z,20.60
2018-08-31T18:56:18.781Z,21.77
2018-08-31T18:58:59.400Z,21.57
2018-08-31T19:01:40.463Z,22.10
2018-08-31T19:04:22.254Z,21.27
2018-08-31T19:07:05.026Z,22.03
2018-08-31T19:09:46.065Z,22.10
2018-08-31T19:12:28.642Z,23.00
2018-08-31T19:15:12.420Z,23.33
2018-08-31T19:17:53.917Z,28.37
2018-08-31T19:20:36.011Z,26.97
2018-08-31T19:23:16.443Z,28.93
2018-08-31T19:25:57.325Z,24.97
2018-08-31T19:28:39.671Z,25.77
2018-08-31T19:31:20.767Z,25.17
2018-08-31T19:34:01.768Z,22.97
2018-08-31T19:36:42.400Z,22.67
2018-08-31T19:39:23.068Z,24.70
2018-08-31T19:42:07.004Z,23.40
2018-08-31T19:44:48.724Z,27.53
2018-08-31T19:47:29.253Z,26.13
2018-08-31T19:50:09.910Z,25.73
2018-08-31T19:52:50.611Z,26.20
2018-08-31T19:55:32.017Z,23.10
2018-08-31T19:58:12.732Z,22.10
2018-08-31T20:00:58.955Z,19.97
2018-08-31T20:03:39.424Z,22.47
2018-08-31T20:06:20.178Z,23.03
2018-08-31T20:09:00.813Z,24.70
2018-08-31T20:11:42.099Z,28.17
2018-08-31T20:14:22.631Z,26.07
2018-08-31T20:17:06.318Z,28.20
2018-08-31T20:19:47.030Z,24.40
2018-08-31T20:22:28.321Z,26.03
2018-08-31T20:25:08.956Z,28.43
2018-08-31T20:28:07.427Z,26.07
2018-08-31T20:30:47.884Z,27.17
2018-08-31T20:33:28.628Z,26.57
2018-08-31T20:36:09.996Z,27.23
2018-08-31T20:38:50.544Z,26.30
2018-08-31T20:41:31.224Z,27.27
2018-08-31T20:44:11.884Z,25.83
2018-08-31T20:46:52.660Z,24.83
2018-08-31T20:49:34.712Z,26.53
2018-08-31T20:52:16.299Z,27.37
2018-08-31T20:54:57.013Z,26.53
2018-08-31T20:57:38.930Z,27.70
2018-08-31T21:00:19.491Z,29.03
2018-08-31T21:03:00.143Z,30.43
2018-08-31T21:05:40.659Z,29.83
2018-08-31T21:08:21.495Z,29.07
2018-08-31T21:11:03.884Z,28.30
2018-08-31T21:13:44.676Z,31.20
2018-08-31T21:16:25.255Z,28.43
2018-08-31T21:19:07.441Z,28.43
2018-08-31T21:21:48.217Z,31.80
2018-08-31T21:24:28.713Z,26.17
2018-08-31T21:27:09.272Z,27.40
2018-08-31T21:29:49.904Z,27.00
2018-08-31T21:32:30.312Z,30.57
2018-08-31T21:35:11.162Z,26.90
2018-08-31T21:37:51.585Z,25.73
2018-08-31T21:40:33.258Z,24.37
2018-08-31T21:43:13.795Z,26.03
2018-08-31T21:45:54.870Z,28.27
2018-08-31T21:48:38.387Z,28.30
2018-08-31T21:51:19.255Z,30.80
2018-08-31T21:54:07.688Z,22.60
2018-08-31T21:56:48.259Z,26.47
2018-08-31T21:59:28.849Z,26.67
2018-08-31T22:02:09.452Z,29.97
2018-08-31T22:04:50.096Z,26.77
2018-08-31T22:07:30.741Z,29.13
2018-08-31T22:10:11.343Z,28.93
2018-08-31T22:12:52.232Z,27.30
2018-08-31T22:15:34.471Z,27.43
2018-08-31T22:18:14.961Z,28.27
2018-08-31T22:20:55.833Z,26.80
2018-08-31T22:23:38.384Z,25.93
2018-08-31T22:26:19.043Z,25.50
2018-08-31T22:29:07.732Z,26.97
2018-08-31T22:31:48.159Z,26.97
2018-08-31T22:34:28.864Z,26.93
2018-08-31T22:37:09.483Z,27.30
2018-08-31T22:39:50.271Z,26.70
2018-08-31T22:42:30.826Z,25.20
2018-08-31T22:45:15.205Z,26.10
2018-08-31T22:47:55.865Z,27.13
2018-08-31T22:50:38.304Z,30.83
2018-08-31T22:53:18.926Z,31.70
2018-08-31T22:55:59.728Z,30.70
2018-08-31T22:58:40.340Z,29.07
2018-08-31T23:01:20.869Z,31.13
2018-08-31T23:04:01.406Z,33.83
2018-08-31T23:06:41.971Z,29.33
2018-08-31T23:09:22.525Z,32.37
2018-08-31T23:12:03.870Z,31.50
2018-08-31T23:14:44.461Z,28.07
2018-08-31T23:17:27.782Z,28.83
2018-08-31T23:20:09.912Z,30.97
2018-08-31T23:22:51.496Z,28.43
2018-08-31T23:25:37.611Z,30.93
2018-08-31T23:28:22.576Z,29.63
2018-08-31T23:31:03.705Z,29.03
2018-08-31T23:33:44.402Z,29.87
2018-08-31T23:36:25.092Z,27.90
2018-08-31T23:39:10.494Z,31.00
2018-08-31T23:41:51.081Z,27.40
2018-08-31T23:44:31.581Z,32.00
2018-08-31T23:47:12.243Z,32.67
2018-08-31T23:49:52.698Z,29.37
2018-08-31T23:52:33.714Z,27.93
2018-08-31T23:55:14.356Z,29.00
2018-08-31T23:57:55.033Z,27.93
